Anchorville, MI

6:09 AM EST on February 01, 2015 (GMT -0500)
Selfridge Angb | Change Station
CLOSE
Current Station
Airport
Location: Mt. Clemens,
Elevation: 581 ft
Nearby Weather Stations

Elev 581 ft 42.61 °N, 82.84 °W | Updated 11 minutes ago

Ice Pellets
Ice Pellets
23 °F
Feels Like 13 °F
N
10
Wind Variable Wind from NNE

Today
High -- | Low -- °F
--% Chance of Precip.
Yesterday
High -- | Low -- °F
Precip. -- in
7:45 AM 5:43 PM
Waxing Gibbous, 94% visible
Pressure 30.21 in
Visibility 7.0 miles
Clouds Few 1000 ft
Overcast 2500 ft
Windchill 13 °F
Dew Point 20 °F
Humidity 88%
Rainfall 0.00 in
Snow Depth Not available.
UV 0 out of 12
Pollen .10 out of 12
Air Quality Not available.
Flu Activity Not available.
METAR KMTC 011058Z AUTO 02009KT 7SM R01/5500FT -SN FEW010 OVC025 M05/M07 A3017 RMK AO2 RAB0958E1005B1043E1044UPB0957E0958B1044E1053SNE0957B1005E1043 B1053 SLP228 P0000 T10491066 $

More Conditions Fewer Conditions

Pressure 30.21 in
Visibility 7.0 miles
Clouds Few 1000 ft
Overcast 2500 ft
Windchill 13 °F
Dew Point 20 °F
Humidity 88%
Rainfall 0.00 in
Snow Depth Not available.
UV 0 out of 12
Pollen .10 out of 12
Air Quality Not available.
Flu Activity Not available.
METAR KMTC 011058Z AUTO 02009KT 7SM R01/5500FT -SN FEW010 OVC025 M05/M07 A3017 RMK AO2 RAB0958E1005B1043E1044UPB0957E0958B1044E1053SNE0957B1005E1043 B1053 SLP228 P0000 T10491066 $

More Conditions Fewer Conditions

10-Day Weather Forecast

Almanac

Astronomy

Feb. 01, 2015 Rise Set
Actual Time
Civil Twilight
Nautical Twilight
Astronomical Twilight
Moon
Length of Visible Light
Length of Day
Tomorrow will be .
, % of the Moon is Illuminated

Today's Extremes

State Highs State Lows

Community

WunderPhotos

Upload Photos

1,792,345 photos uploaded!

WunderBlogs® & News

Nearby

Air Quality

  Air Quality AQ Index Pollutant
Not available.

Snow Depth

Station Depth Elevation

Earthquake Activity

City Distance Mag. Time & Date
Minimum magnitude displayed is 2.5.

Coastal Water Temperatures

Place Temperature

Nearby Weather Stations